Time;durP1;ratioP1;P1;durP2;ratioP2;P2;SDS_P1;SDS_P2;PMS_P1;PMS_P2;Temp;Humidity;BMP_temperature;BMP_pressure;BME280_temperature;BME280_humidity;BME280_pressure;Samples;Min_cycle;Max_cycle;Signal;HPM_P1;HPM_P2
2022/04/12 00:01:47;;;;;;;1.58;0.20;;;24.40;39.40;;;;;;5070340;28;20090;-65
2022/04/12 00:04:14;;;;;;;2.50;0.35;;;24.40;39.40;;;;;;5067791;28;20123;-64
2022/04/12 00:06:41;;;;;;;0.70;0.10;;;24.30;39.40;;;;;;5065839;28;20073;-66
2022/04/12 00:09:10;;;;;;;0.70;0.20;;;24.30;39.40;;;;;;5063979;28;20765;-66
2022/04/12 00:11:37;;;;;;;0.28;0.10;;;24.40;39.50;;;;;;5052514;28;20055;-66
2022/04/12 00:14:04;;;;;;;0.50;0.10;;;24.30;39.40;;;;;;5070188;28;20048;-67
2022/04/12 00:16:31;;;;;;;1.38;0.35;;;24.40;39.50;;;;;;5067852;28;20044;-66
2022/04/12 00:19:03;;;;;;;1.10;0.10;;;24.30;39.50;;;;;;5049977;28;20059;-65
2022/04/12 00:21:34;;;;;;;2.92;0.10;;;24.30;39.50;;;;;;5066115;28;20044;-65
2022/04/12 00:24:02;;;;;;;0.20;0.20;;;24.30;39.50;;;;;;5067516;28;20048;-66
2022/04/12 00:26:30;;;;;;;0.82;0.50;;;24.30;39.60;;;;;;5068036;28;20040;-67
2022/04/12 00:28:57;;;;;;;0.30;0.10;;;24.30;40.20;;;;;;5048222;28;20424;-63
2022/04/12 00:31:25;;;;;;;0.50;0.10;;;24.30;39.60;;;;;;5047767;28;20047;-63
2022/04/12 00:33:52;;;;;;;0.55;0.10;;;24.20;39.60;;;;;;5047616;28;20056;-64
2022/04/12 00:36:19;;;;;;;0.13;0.10;;;24.20;39.60;;;;;;5047666;28;20088;-64
2022/04/12 00:38:46;;;;;;;1.65;0.10;;;24.20;39.60;;;;;;5047804;28;20055;-64
2022/04/12 00:41:13;;;;;;;0.45;0.10;;;24.30;39.70;;;;;;5048181;28;20438;-64
2022/04/12 00:43:43;;;;;;;0.10;0.10;;;24.30;39.70;;;;;;5047253;28;20083;-65
2022/04/12 00:46:11;;;;;;;0.20;0.10;;;24.20;39.70;;;;;;5046060;28;20033;-66
2022/04/12 00:48:37;;;;;;;1.15;0.15;;;24.30;39.80;;;;;;5047615;28;20037;-66
2022/04/12 00:51:04;;;;;;;1.05;0.00;;;24.20;39.70;;;;;;5047588;28;20037;-65
2022/04/12 00:53:32;;;;;;;0.75;0.13;;;24.20;39.70;;;;;;5046117;28;20099;-66
2022/04/12 00:56:00;;;;;;;0.30;0.17;;;24.20;39.80;;;;;;5049002;28;20049;-66
2022/04/12 00:58:28;;;;;;;2.95;0.10;;;24.20;39.80;;;;;;5047950;28;20045;-63
2022/04/12 01:00:57;;;;;;;0.20;0.10;;;24.20;39.80;;;;;;5046417;28;20068;-63
2022/04/12 01:03:24;;;;;;;0.95;0.10;;;24.10;39.80;;;;;;5047201;28;20041;-64
2022/04/12 01:05:52;;;;;;;0.30;0.10;;;24.20;39.90;;;;;;5043771;28;20065;-64
2022/04/12 01:08:19;;;;;;;0.32;0.10;;;24.10;39.80;;;;;;5046915;28;20037;-64
2022/04/12 01:10:47;;;;;;;0.30;0.10;;;24.10;39.90;;;;;;5048320;28;20067;-65
2022/04/12 01:13:14;;;;;;;0.20;0.10;;;24.10;39.90;;;;;;5046635;28;20099;-65
2022/04/12 01:15:42;;;;;;;0.30;0.10;;;24.10;39.90;;;;;;5046442;28;20242;-64
2022/04/12 01:18:11;;;;;;;0.20;0.10;;;24.10;39.90;;;;;;5046182;28;20045;-65
2022/04/12 01:20:38;;;;;;;0.73;0.10;;;24.10;40.00;;;;;;5046329;28;20056;-65
2022/04/12 01:23:09;;;;;;;0.50;0.20;;;24.10;40.00;;;;;;5044873;28;20068;-64
2022/04/12 01:25:38;;;;;;;0.40;0.20;;;24.10;40.00;;;;;;5045545;28;20410;-65
2022/04/12 01:28:06;;;;;;;1.58;0.10;;;24.10;40.00;;;;;;5049890;28;20055;-65
2022/04/12 01:30:33;;;;;;;1.38;0.10;;;24.10;40.10;;;;;;5066325;28;20048;-64
2022/04/12 01:33:00;;;;;;;0.47;0.10;;;24.10;40.10;;;;;;5066086;28;20115;-64
2022/04/12 01:35:27;;;;;;;0.20;0.10;;;24.10;40.10;;;;;;5065008;28;20122;-65
2022/04/12 01:37:54;;;;;;;0.20;0.10;;;24.10;40.20;;;;;;5068536;28;20128;-64
2022/04/12 01:40:21;;;;;;;1.42;0.10;;;24.10;40.20;;;;;;5065322;28;20558;-65
2022/04/12 01:42:52;;;;;;;0.65;0.03;;;24.00;40.20;;;;;;5065795;28;20098;-66
2022/04/12 01:45:20;;;;;;;2.55;0.25;;;24.00;40.20;;;;;;5065815;28;20045;-65
2022/04/12 01:47:47;;;;;;;0.63;0.08;;;24.00;40.20;;;;;;5053253;28;20036;-64
2022/04/12 01:50:14;;;;;;;0.30;0.10;;;24.00;40.30;;;;;;5066046;28;20125;-64
2022/04/12 01:52:41;;;;;;;2.85;0.20;;;24.00;40.30;;;;;;5065724;28;20055;-64
2022/04/12 01:55:10;;;;;;;0.10;0.10;;;24.00;40.30;;;;;;5062823;28;20444;-65
2022/04/12 01:57:37;;;;;;;1.88;0.68;;;23.90;40.30;;;;;;5044237;28;20148;-64
2022/04/12 02:00:08;;;;;;;0.38;0.10;;;24.00;40.40;;;;;;5055692;28;20845;-64
2022/04/12 02:02:41;;;;;;;1.75;0.10;;;23.90;40.40;;;;;;5047126;28;20063;-65
2022/04/12 02:05:09;;;;;;;2.22;0.10;;;24.00;40.50;;;;;;5063311;28;20047;-64
2022/04/12 02:07:36;;;;;;;0.25;0.10;;;23.90;40.50;;;;;;5064653;28;20040;-64
2022/04/12 02:10:04;;;;;;;1.95;0.10;;;23.90;40.50;;;;;;5048087;28;20483;-65
2022/04/12 02:12:31;;;;;;;0.13;0.10;;;23.90;40.60;;;;;;5064118;28;20044;-65
2022/04/12 02:14:59;;;;;;;0.63;0.10;;;23.90;40.60;;;;;;5065271;28;20416;-64
2022/04/12 02:17:27;;;;;;;0.63;0.10;;;23.90;40.60;;;;;;5066213;28;20043;-66
2022/04/12 02:19:54;;;;;;;0.20;0.20;;;23.90;40.60;;;;;;5067414;28;20036;-65
2022/04/12 02:22:22;;;;;;;0.45;0.10;;;23.90;40.60;;;;;;5045528;28;20039;-66
2022/04/12 02:24:49;;;;;;;0.10;0.10;;;23.90;40.70;;;;;;5064662;28;20067;-64
2022/04/12 02:27:16;;;;;;;0.25;0.10;;;23.90;40.60;;;;;;5061400;28;20052;-64
2022/04/12 02:29:43;;;;;;;0.08;0.08;;;23.90;40.70;;;;;;5045769;28;20068;-63
2022/04/12 02:32:10;;;;;;;0.30;0.10;;;23.90;40.80;;;;;;5064745;28;20060;-65
2022/04/12 02:34:38;;;;;;;0.20;0.00;;;23.90;40.80;;;;;;5063020;28;20127;-64
2022/04/12 02:37:06;;;;;;;3.10;0.25;;;23.90;40.90;;;;;;5063625;28;20029;-64
2022/04/12 02:39:33;;;;;;;5.97;1.25;;;23.80;40.90;;;;;;5062876;28;20076;-61
2022/04/12 02:42:00;;;;;;;5.07;0.10;;;23.80;41.00;;;;;;5052385;28;20063;-62
2022/04/12 02:44:27;;;;;;;7.93;0.20;;;23.80;41.00;;;;;;5064645;28;20056;-61
2022/04/12 02:46:54;;;;;;;4.47;0.13;;;23.80;41.60;;;;;;5067656;28;20059;-61
2022/04/12 02:49:21;;;;;;;6.10;0.10;;;23.80;41.00;;;;;;5062386;28;20476;-61
2022/04/12 02:51:51;;;;;;;1.58;0.20;;;23.80;41.00;;;;;;5060462;28;20040;-61
2022/04/12 02:54:18;;;;;;;2.53;0.20;;;23.80;41.00;;;;;;5065344;28;20117;-61
2022/04/12 02:56:45;;;;;;;0.43;0.10;;;23.80;41.00;;;;;;5065973;28;20039;-63
2022/04/12 02:59:12;;;;;;;1.75;0.10;;;23.80;41.00;;;;;;5068524;28;20098;-62
2022/04/12 03:01:39;;;;;;;3.53;0.10;;;23.80;41.10;;;;;;5064528;28;20043;-63
2022/04/12 03:04:06;;;;;;;0.32;0.20;;;23.80;41.00;;;;;;5065155;28;20127;-63
2022/04/12 03:06:34;;;;;;;4.82;0.40;;;23.80;41.00;;;;;;5062718;28;20037;-62
2022/04/12 03:09:03;;;;;;;2.13;0.10;;;23.80;41.10;;;;;;5061985;28;20049;-62
2022/04/12 03:11:31;;;;;;;2.67;0.38;;;23.80;41.10;;;;;;5066182;28;20095;-62
2022/04/12 03:13:58;;;;;;;2.92;0.10;;;23.80;41.10;;;;;;5071020;28;20150;-61
2022/04/12 03:16:26;;;;;;;0.60;0.10;;;23.70;41.10;;;;;;5068451;28;20131;-63
2022/04/12 03:18:53;;;;;;;3.20;0.20;;;23.70;41.10;;;;;;5069318;28;20079;-63
2022/04/12 03:21:20;;;;;;;4.43;0.30;;;23.70;41.20;;;;;;5069388;28;20060;-63
2022/04/12 03:23:47;;;;;;;4.55;0.10;;;23.70;41.20;;;;;;5066161;28;20051;-62
2022/04/12 03:26:16;;;;;;;0.52;0.10;;;23.80;41.20;;;;;;5052036;28;20208;-62
2022/04/12 03:28:43;;;;;;;0.43;0.10;;;23.70;41.20;;;;;;5069832;28;20113;-62
2022/04/12 03:31:10;;;;;;;0.93;0.10;;;23.70;41.20;;;;;;5066006;28;20144;-62
2022/04/12 03:33:37;;;;;;;0.90;0.10;;;23.70;41.30;;;;;;5051111;28;20600;-63
2022/04/12 03:36:04;;;;;;;0.30;0.00;;;23.70;41.30;;;;;;5066924;28;20039;-64
2022/04/12 03:38:31;;;;;;;1.55;0.10;;;23.70;41.30;;;;;;5068742;28;20127;-63
2022/04/12 03:40:59;;;;;;;0.90;0.45;;;23.70;41.30;;;;;;5052830;28;20048;-63
2022/04/12 03:43:27;;;;;;;3.88;0.90;;;23.70;41.30;;;;;;5068616;28;20428;-64
2022/04/12 03:45:54;;;;;;;1.00;0.32;;;23.70;41.40;;;;;;5068354;28;20040;-63
2022/04/12 03:48:21;;;;;;;0.17;0.05;;;23.70;41.40;;;;;;5050656;28;20066;-63
2022/04/12 03:50:48;;;;;;;3.28;0.45;;;23.70;41.40;;;;;;5067443;28;20036;-64
2022/04/12 03:53:15;;;;;;;2.55;0.28;;;23.70;41.50;;;;;;5066371;28;20059;-64
2022/04/12 03:55:46;;;;;;;0.75;0.10;;;23.70;41.50;;;;;;5070081;28;20048;-63
2022/04/12 03:58:19;;;;;;;1.08;0.10;;;23.70;41.50;;;;;;5068228;28;20048;-63
2022/04/12 04:00:47;;;;;;;3.90;0.10;;;23.60;41.50;;;;;;5068422;28;20501;-63
2022/04/12 04:03:14;;;;;;;0.43;0.20;;;23.60;41.50;;;;;;5068471;28;20067;-63
2022/04/12 04:05:41;;;;;;;0.43;0.17;;;23.60;41.50;;;;;;5066747;28;20045;-64
2022/04/12 04:08:08;;;;;;;0.50;0.10;;;23.60;41.60;;;;;;5069689;28;20444;-63
2022/04/12 04:10:35;;;;;;;1.00;0.10;;;23.60;41.60;;;;;;5064423;28;20457;-64
2022/04/12 04:13:04;;;;;;;0.38;0.38;;;23.60;41.70;;;;;;5065572;28;20052;-63
2022/04/12 04:15:36;;;;;;;0.10;0.00;;;23.60;41.70;;;;;;5061229;28;20513;-62
2022/04/12 04:18:04;;;;;;;1.48;0.10;;;23.60;41.80;;;;;;5016053;28;20037;-62
2022/04/12 04:20:31;;;;;;;1.45;0.10;;;23.60;41.90;;;;;;5066254;28;20528;-64
2022/04/12 04:22:58;;;;;;;1.95;0.10;;;23.60;42.00;;;;;;5069062;28;20078;-62
2022/04/12 04:25:26;;;;;;;1.15;0.00;;;23.60;42.00;;;;;;5064446;28;20508;-63
2022/04/12 04:27:53;;;;;;;0.20;0.15;;;23.60;42.00;;;;;;5061499;28;20139;-62
2022/04/12 04:30:20;;;;;;;0.10;0.10;;;23.60;42.00;;;;;;5065426;28;20040;-65
2022/04/12 04:32:47;;;;;;;0.43;0.03;;;23.60;42.00;;;;;;5065556;28;20421;-65
2022/04/12 04:35:16;;;;;;;0.00;0.00;;;23.60;42.10;;;;;;5065374;28;20177;-64
2022/04/12 04:37:44;;;;;;;1.75;0.68;;;23.60;42.10;;;;;;5066598;28;20044;-65
2022/04/12 04:40:14;;;;;;;1.55;0.00;;;23.50;42.10;;;;;;5067926;28;20043;-66
2022/04/12 04:42:42;;;;;;;0.95;0.10;;;23.50;42.10;;;;;;5064936;28;20094;-65
2022/04/12 04:45:10;;;;;;;0.10;0.10;;;23.50;42.20;;;;;;5042181;28;20056;-64
2022/04/12 04:47:49;;;;;;;0.10;0.08;;;23.50;42.20;;;;;;5051546;28;20125;-64
2022/04/12 04:50:17;;;;;;;0.10;0.00;;;23.50;42.20;;;;;;5065169;28;20528;-64
2022/04/12 04:52:44;;;;;;;1.95;0.10;;;23.50;42.20;;;;;;5048914;28;20033;-64
2022/04/12 04:55:12;;;;;;;0.45;0.20;;;23.50;42.20;;;;;;5064795;28;20570;-64
2022/04/12 04:57:40;;;;;;;1.75;0.10;;;23.50;42.20;;;;;;5064740;28;20421;-63
2022/04/12 05:00:09;;;;;;;1.77;0.00;;;23.50;42.30;;;;;;5067508;28;20040;-63
2022/04/12 05:02:36;;;;;;;0.50;0.10;;;23.50;42.30;;;;;;5065186;28;20563;-62
2022/04/12 05:05:03;;;;;;;0.10;0.10;;;23.50;42.30;;;;;;5064646;28;20037;-62
2022/04/12 05:07:32;;;;;;;2.35;0.10;;;23.50;42.40;;;;;;5064240;28;20032;-63
2022/04/12 05:09:59;;;;;;;0.32;0.20;;;23.50;42.40;;;;;;5063948;28;20060;-63
2022/04/12 05:12:26;;;;;;;1.08;0.15;;;23.40;42.40;;;;;;5066412;28;20048;-62
2022/04/12 05:14:54;;;;;;;1.20;0.10;;;23.40;42.40;;;;;;5065546;28;20056;-63
2022/04/12 05:17:25;;;;;;;0.43;0.10;;;23.50;42.50;;;;;;5057708;28;20041;-64
2022/04/12 05:19:52;;;;;;;1.05;0.03;;;23.40;42.40;;;;;;5067863;28;20679;-63
2022/04/12 05:22:20;;;;;;;0.63;0.10;;;23.40;42.50;;;;;;5066464;28;20242;-63
2022/04/12 05:24:48;;;;;;;2.35;0.10;;;23.40;42.50;;;;;;5066212;28;20051;-64
2022/04/12 05:27:16;;;;;;;3.05;0.28;;;23.40;42.60;;;;;;5063053;28;20554;-63
2022/04/12 05:29:44;;;;;;;2.22;0.10;;;23.40;42.70;;;;;;5068892;28;20501;-63
2022/04/12 05:32:13;;;;;;;0.20;0.15;;;23.40;42.70;;;;;;5066836;28;20410;-66
2022/04/12 05:34:40;;;;;;;0.93;0.10;;;23.40;42.70;;;;;;5065929;28;20516;-64
2022/04/12 05:37:07;;;;;;;1.63;0.17;;;23.40;42.70;;;;;;5065243;28;20042;-66
2022/04/12 05:39:35;;;;;;;0.47;0.10;;;23.40;42.70;;;;;;5066573;28;20045;-66
2022/04/12 05:42:04;;;;;;;2.25;0.17;;;23.40;42.70;;;;;;5067795;28;20082;-65
2022/04/12 05:44:33;;;;;;;3.72;0.20;;;23.40;42.80;;;;;;5068874;28;20071;-66
2022/04/12 05:47:01;;;;;;;0.03;0.00;;;23.40;42.80;;;;;;5069332;28;20515;-65
2022/04/12 05:49:28;;;;;;;2.40;0.32;;;23.30;42.70;;;;;;5067928;28;20094;-65
2022/04/12 05:51:55;;;;;;;3.55;0.10;;;23.40;42.80;;;;;;5068058;28;20497;-66
2022/04/12 05:54:23;;;;;;;0.60;0.10;;;23.40;42.80;;;;;;5068503;28;20629;-63
2022/04/12 05:56:50;;;;;;;2.65;0.08;;;23.40;42.80;;;;;;5070361;28;20037;-67
2022/04/12 05:59:19;;;;;;;1.95;0.10;;;23.40;42.80;;;;;;5067806;28;20037;-63
2022/04/12 06:01:46;;;;;;;0.10;0.05;;;23.40;42.90;;;;;;5049414;28;20042;-66
2022/04/12 06:04:13;;;;;;;2.30;0.10;;;23.40;42.90;;;;;;5065627;28;20040;-61
2022/04/12 06:06:41;;;;;;;0.10;0.05;;;23.40;43.00;;;;;;5065857;28;20051;-63
2022/04/12 06:09:09;;;;;;;3.25;0.00;;;23.40;43.00;;;;;;5066580;28;20119;-64
2022/04/12 06:11:36;;;;;;;1.80;0.10;;;23.40;43.00;;;;;;5065059;28;20032;-63
2022/04/12 06:14:04;;;;;;;0.32;0.10;;;23.40;43.00;;;;;;5051962;28;20064;-63
2022/04/12 06:16:32;;;;;;;0.50;0.40;;;23.40;42.90;;;;;;5067100;28;20152;-65
2022/04/12 06:18:59;;;;;;;1.10;0.10;;;23.40;42.90;;;;;;5069742;28;20044;-64
2022/04/12 06:21:26;;;;;;;0.10;0.10;;;23.40;42.90;;;;;;5066707;28;20115;-63
2022/04/12 06:23:53;;;;;;;1.45;0.00;;;23.40;42.90;;;;;;5065253;28;20111;-64
2022/04/12 06:26:20;;;;;;;1.35;0.10;;;23.40;42.90;;;;;;5064566;28;20059;-66
2022/04/12 06:28:47;;;;;;;0.10;0.00;;;23.40;42.90;;;;;;5067021;28;20466;-65
2022/04/12 06:31:14;;;;;;;2.13;0.10;;;23.40;42.90;;;;;;5066360;28;20099;-66
2022/04/12 06:33:42;;;;;;;0.93;0.03;;;23.40;42.80;;;;;;5064987;28;20467;-65
2022/04/12 06:36:09;;;;;;;0.95;0.10;;;23.50;42.90;;;;;;5045981;28;20531;-65
2022/04/12 06:38:37;;;;;;;1.70;0.10;;;23.40;42.80;;;;;;5047096;28;20041;-66
2022/04/12 06:41:03;;;;;;;0.57;0.10;;;23.50;42.80;;;;;;5064686;28;20131;-64
2022/04/12 06:43:31;;;;;;;0.98;0.32;;;23.50;42.80;;;;;;5065966;28;20033;-64
2022/04/12 06:45:58;;;;;;;0.63;0.10;;;23.50;42.80;;;;;;5065421;28;20040;-64
2022/04/12 06:48:25;;;;;;;0.10;0.08;;;23.50;42.80;;;;;;5067493;28;20072;-64
2022/04/12 06:50:54;;;;;;;0.28;0.10;;;23.50;42.70;;;;;;5064289;28;20715;-67
2022/04/12 06:53:22;;;;;;;7.68;0.10;;;23.50;42.80;;;;;;5067381;28;20474;-66
2022/04/12 06:55:49;;;;;;;0.70;0.10;;;23.50;42.80;;;;;;5052733;28;20060;-66
2022/04/12 06:58:16;;;;;;;0.93;0.10;;;23.50;42.80;;;;;;5061524;28;20123;-70
2022/04/12 07:00:44;;;;;;;2.33;0.73;;;23.50;42.80;;;;;;5068690;28;20119;-67
2022/04/12 07:03:11;;;;;;;1.38;0.10;;;23.50;42.70;;;;;;5079218;28;20090;-57
2022/04/12 07:05:38;;;;;;;9.15;0.57;;;23.50;42.70;;;;;;5067568;28;20527;-57
2022/04/12 07:08:07;;;;;;;7.95;1.15;;;23.50;44.90;;;;;;5064157;28;20120;-55
2022/04/12 07:10:35;;;;;;;14.63;0.80;;;23.50;46.10;;;;;;5069937;28;20041;-49
2022/04/12 07:13:02;;;;;;;7.82;0.55;;;23.60;46.80;;;;;;5069297;28;20060;-48
2022/04/12 07:15:29;;;;;;;13.05;1.17;;;23.60;47.30;;;;;;5064927;28;20055;-51
2022/04/12 07:17:56;;;;;;;15.70;0.50;;;23.60;47.60;;;;;;5058417;28;20052;-59
2022/04/12 07:20:23;;;;;;;9.13;0.68;;;23.70;47.90;;;;;;5064173;28;20044;-60
2022/04/12 07:22:50;;;;;;;10.10;1.25;;;23.70;48.10;;;;;;5070496;28;20505;-60
2022/04/12 07:25:19;;;;;;;3.47;0.60;;;23.70;48.30;;;;;;5057661;28;20064;-62
2022/04/12 07:27:46;;;;;;;3.53;0.70;;;23.80;48.50;;;;;;5055864;28;20052;-60
2022/04/12 07:30:13;;;;;;;7.13;1.00;;;23.80;48.50;;;;;;5068319;28;20032;-59
2022/04/12 07:32:40;;;;;;;3.33;0.13;;;23.90;48.60;;;;;;5067344;28;20041;-61
2022/04/12 07:35:09;;;;;;;7.85;0.57;;;23.90;48.40;;;;;;5069762;28;20071;-56
2022/04/12 07:37:36;;;;;;;3.83;0.50;;;23.90;48.60;;;;;;5058247;28;20041;-53
2022/04/12 07:40:05;;;;;;;7.85;0.68;;;24.00;48.20;;;;;;5061214;28;20098;-56
2022/04/12 07:42:33;;;;;;;1.15;0.20;;;24.00;48.10;;;;;;5066403;28;20036;-59
2022/04/12 07:45:00;;;;;;;2.65;0.40;;;24.10;47.80;;;;;;5069216;28;20098;-51
2022/04/12 07:47:28;;;;;;;1.77;0.20;;;24.10;47.60;;;;;;5067975;28;24878;-52
2022/04/12 07:49:55;;;;;;;6.32;0.15;;;24.10;47.40;;;;;;5069862;28;20040;-55
2022/04/12 07:52:23;;;;;;;1.88;0.60;;;24.10;47.40;;;;;;5066197;28;20048;-52
2022/04/12 07:54:49;;;;;;;1.38;0.80;;;24.20;47.20;;;;;;5066935;28;20044;-59
2022/04/12 07:57:17;;;;;;;3.35;0.20;;;24.20;46.90;;;;;;5067056;28;20052;-54
2022/04/12 07:59:45;;;;;;;3.47;0.90;;;24.20;46.80;;;;;;5065268;28;20037;-60
2022/04/12 08:02:12;;;;;;;0.82;0.47;;;24.30;47.00;;;;;;5068721;28;20065;-52
2022/04/12 08:04:41;;;;;;;1.58;0.10;;;24.30;46.80;;;;;;5067185;28;20458;-58
2022/04/12 08:07:08;;;;;;;1.13;0.20;;;24.30;46.70;;;;;;5062139;28;20045;-60
2022/04/12 08:09:35;;;;;;;2.58;0.30;;;24.30;45.90;;;;;;5062174;28;20040;-57
2022/04/12 08:12:04;;;;;;;1.58;0.65;;;24.30;45.70;;;;;;5063651;28;20673;-56
2022/04/12 08:14:32;;;;;;;1.05;0.15;;;24.30;45.80;;;;;;5064211;28;20045;-66
2022/04/12 08:17:00;;;;;;;3.60;0.40;;;24.40;45.70;;;;;;5066924;28;20078;-66
2022/04/12 08:19:27;;;;;;;4.05;0.35;;;24.50;45.50;;;;;;5064699;28;20123;-47
2022/04/12 08:21:54;;;;;;;4.75;0.80;;;24.60;45.30;;;;;;5064533;28;20048;-54
2022/04/12 08:24:22;;;;;;;4.28;0.73;;;24.70;45.00;;;;;;5063273;28;20705;-52
2022/04/12 08:26:49;;;;;;;1.23;0.20;;;24.80;44.90;;;;;;5058217;28;20041;-55
2022/04/12 08:29:16;;;;;;;4.53;0.40;;;24.90;44.60;;;;;;5064588;28;20076;-51
2022/04/12 08:31:44;;;;;;;1.60;0.30;;;25.10;44.50;;;;;;5066388;28;20053;-55
2022/04/12 08:34:12;;;;;;;1.17;0.35;;;25.20;44.20;;;;;;5064834;28;20040;-59
2022/04/12 08:36:40;;;;;;;2.47;0.20;;;25.30;44.00;;;;;;5061740;28;20048;-58
2022/04/12 08:39:07;;;;;;;3.20;0.20;;;25.50;43.90;;;;;;5062739;28;20119;-60
2022/04/12 08:41:36;;;;;;;2.58;0.20;;;25.60;43.50;;;;;;5064568;28;20059;-60
2022/04/12 08:44:04;;;;;;;7.15;1.20;;;25.70;43.20;;;;;;5048268;28;20059;-59
2022/04/12 08:46:31;;;;;;;2.30;0.25;;;25.90;42.70;;;;;;5063803;28;20041;-60
2022/04/12 08:48:59;;;;;;;4.15;0.98;;;26.00;42.30;;;;;;5062019;28;20044;-59
2022/04/12 08:51:28;;;;;;;1.80;0.82;;;26.10;41.80;;;;;;5059679;28;20598;-59
2022/04/12 08:53:58;;;;;;;4.95;0.10;;;26.20;41.60;;;;;;5063781;28;20778;-60
2022/04/12 08:56:27;;;;;;;8.70;0.30;;;26.30;41.30;;;;;;5064357;28;20139;-56
2022/04/12 08:58:54;;;;;;;2.20;0.25;;;26.40;41.20;;;;;;5043073;28;20402;-68
2022/04/12 09:01:23;;;;;;;0.52;0.15;;;26.40;40.70;;;;;;5046165;28;20480;-70
2022/04/12 09:03:50;;;;;;;0.73;0.20;;;26.50;40.60;;;;;;5041257;28;20060;-66
2022/04/12 09:06:17;;;;;;;2.58;0.43;;;26.60;40.50;;;;;;5041616;28;20114;-60
2022/04/12 09:08:46;;;;;;;3.08;0.20;;;26.60;40.30;;;;;;5055652;28;20037;-68
2022/04/12 09:11:15;;;;;;;2.88;0.20;;;26.70;40.10;;;;;;5063378;28;20137;-70
2022/04/12 09:13:59;;;;;;;2.78;0.40;;;26.70;39.90;;;;;;5046201;28;20416;-62
2022/04/12 09:16:28;;;;;;;1.77;0.20;;;26.80;39.80;;;;;;5062993;28;20040;-60
2022/04/12 09:18:56;;;;;;;0.73;0.10;;;26.80;39.70;;;;;;5045135;28;20040;-56
2022/04/12 09:21:25;;;;;;;3.85;0.15;;;26.90;39.60;;;;;;5061932;28;20756;-53
2022/04/12 09:23:55;;;;;;;1.55;0.20;;;26.90;39.60;;;;;;5063941;28;20090;-51
2022/04/12 09:26:24;;;;;;;7.28;0.20;;;27.00;39.60;;;;;;5063004;28;20048;-52
2022/04/12 09:28:53;;;;;;;3.22;0.20;;;27.10;39.50;;;;;;5063798;28;20135;-44
2022/04/12 09:31:21;;;;;;;0.93;0.10;;;27.10;39.90;;;;;;5046397;28;20128;-52
2022/04/12 09:33:50;;;;;;;3.85;0.20;;;27.20;39.20;;;;;;5060941;28;20049;-49
2022/04/12 09:36:17;;;;;;;5.07;0.40;;;27.20;38.90;;;;;;5062053;28;20051;-48
2022/04/12 09:38:46;;;;;;;2.40;0.43;;;27.20;38.70;;;;;;5061392;28;20047;-47
2022/04/12 09:41:20;;;;;;;2.40;0.10;;;27.30;38.80;;;;;;5064702;28;20826;-47
2022/04/12 09:43:52;;;;;;;0.90;0.30;;;27.30;38.70;;;;;;5065111;28;20560;-63
2022/04/12 09:46:20;;;;;;;3.33;0.20;;;27.30;38.70;;;;;;5062472;28;20040;-64
2022/04/12 09:48:48;;;;;;;3.35;0.38;;;27.40;38.80;;;;;;5061033;28;20075;-63
2022/04/12 09:51:16;;;;;;;2.50;0.47;;;27.40;38.70;;;;;;5063390;28;20036;-62
2022/04/12 09:53:46;;;;;;;2.88;0.10;;;27.50;38.80;;;;;;5063452;28;20078;-56
2022/04/12 09:56:20;;;;;;;4.72;0.15;;;27.50;38.70;;;;;;5062750;28;20059;-52
2022/04/12 09:58:48;;;;;;;4.00;0.13;;;27.50;38.60;;;;;;5064687;28;20394;-48
2022/04/12 10:01:17;;;;;;;5.47;0.13;;;27.60;38.70;;;;;;5064805;28;20090;-47
2022/04/12 10:03:50;;;;;;;6.45;0.15;;;27.60;38.40;;;;;;5045161;28;20032;-47
2022/04/12 10:06:20;;;;;;;5.15;0.10;;;27.60;38.30;;;;;;5065916;28;20578;-48
2022/04/12 10:08:52;;;;;;;2.13;0.10;;;27.50;37.70;;;;;;5064516;28;20112;-48
2022/04/12 10:11:21;;;;;;;4.35;0.75;;;27.40;37.60;;;;;;5066083;28;20636;-48
2022/04/12 10:13:49;;;;;;;4.00;0.40;;;27.30;37.50;;;;;;5066051;28;20045;-48
2022/04/12 10:16:18;;;;;;;3.38;0.43;;;27.30;37.50;;;;;;5060874;28;20076;-49
2022/04/12 10:18:46;;;;;;;1.83;0.10;;;27.20;37.40;;;;;;5046821;28;20403;-47
2022/04/12 10:21:14;;;;;;;3.47;0.25;;;27.10;37.30;;;;;;5064807;28;20334;-48
2022/04/12 10:23:43;;;;;;;3.42;0.30;;;27.10;37.30;;;;;;5047015;28;20045;-52
2022/04/12 10:26:11;;;;;;;2.65;0.10;;;27.00;37.30;;;;;;5066914;28;20132;-51
2022/04/12 10:28:41;;;;;;;7.03;0.30;;;27.00;37.10;;;;;;5066802;28;20156;-48
2022/04/12 10:31:24;;;;;;;2.30;1.35;;;26.90;37.20;;;;;;5065420;28;20449;-52
2022/04/12 10:33:52;;;;;;;2.60;0.40;;;26.90;37.20;;;;;;5060468;28;20041;-49
2022/04/12 10:36:19;;;;;;;2.55;0.20;;;26.80;37.40;;;;;;5062272;28;20125;-48
2022/04/12 10:38:47;;;;;;;0.93;0.10;;;26.80;37.50;;;;;;5064174;28;20129;-48
2022/04/12 10:41:30;;;;;;;1.02;0.30;;;26.70;37.50;;;;;;5066118;28;20044;-47
2022/04/12 10:43:59;;;;;;;0.70;0.10;;;26.80;37.60;;;;;;5066600;28;20036;-45
2022/04/12 10:46:45;;;;;;;2.55;0.28;;;26.70;37.60;;;;;;5064845;28;20124;-47
2022/04/12 10:49:13;;;;;;;0.90;0.20;;;26.70;37.60;;;;;;5062609;28;20036;-46
2022/04/12 10:51:40;;;;;;;4.00;0.47;;;26.70;37.80;;;;;;5047635;28;20568;-52
2022/04/12 10:54:27;;;;;;;3.05;0.63;;;26.70;38.10;;;;;;5047936;28;20469;-47
2022/04/12 10:57:21;;;;;;;1.92;0.20;;;26.60;38.50;;;;;;5057767;28;20047;-52
2022/04/12 10:59:53;;;;;;;1.88;0.10;;;26.70;38.70;;;;;;5051359;28;20044;-49
2022/04/12 11:02:21;;;;;;;1.00;0.10;;;26.60;38.90;;;;;;5065616;28;20141;-49
2022/04/12 11:04:48;;;;;;;6.43;1.00;;;26.60;39.00;;;;;;5066788;28;20063;-51
2022/04/12 11:07:33;;;;;;;1.88;0.10;;;26.60;39.00;;;;;;5062251;28;20119;-52
2022/04/12 11:10:08;;;;;;;1.80;0.10;;;26.60;39.70;;;;;;5062922;28;20131;-48
2022/04/12 11:12:42;;;;;;;0.77;0.10;;;26.60;39.20;;;;;;5065293;28;20047;-51
2022/04/12 11:15:27;;;;;;;1.50;0.10;;;26.50;39.70;;;;;;5047005;28;20052;-49
2022/04/12 11:18:09;;;;;;;1.03;0.10;;;26.60;39.20;;;;;;5049091;28;20041;-50
2022/04/12 11:20:37;;;;;;;1.02;0.10;;;26.50;39.20;;;;;;5064981;28;20109;-47
2022/04/12 11:23:09;;;;;;;1.42;0.10;;;26.50;39.20;;;;;;5067395;28;20044;-51
2022/04/12 11:25:47;;;;;;;1.02;0.55;;;26.50;39.20;;;;;;5066696;28;20051;-50
2022/04/12 11:28:15;;;;;;;0.15;0.10;;;26.50;39.30;;;;;;5064712;28;20103;-47
2022/04/12 11:30:54;;;;;;;1.10;0.15;;;26.50;39.30;;;;;;5062700;28;20040;-51
2022/04/12 11:33:24;;;;;;;0.57;0.17;;;26.50;39.30;;;;;;5067941;28;20037;-50
2022/04/12 11:35:52;;;;;;;2.45;0.28;;;26.50;39.30;;;;;;5066986;28;20041;-47
2022/04/12 11:38:21;;;;;;;1.02;0.00;;;26.50;39.30;;;;;;5068868;28;20070;-50
2022/04/12 11:40:48;;;;;;;2.30;0.15;;;26.50;39.40;;;;;;5070519;28;20045;-49
2022/04/12 11:43:26;;;;;;;1.20;0.10;;;26.50;39.40;;;;;;5068474;28;20037;-50
2022/04/12 11:45:57;;;;;;;1.52;0.10;;;26.50;39.40;;;;;;5048025;28;20049;-49
2022/04/12 11:48:28;;;;;;;0.85;0.10;;;26.50;39.50;;;;;;5069053;28;20071;-49
2022/04/12 11:50:57;;;;;;;3.92;0.10;;;26.50;39.40;;;;;;5066227;28;20044;-47
2022/04/12 11:53:26;;;;;;;0.77;0.10;;;26.50;39.40;;;;;;5069089;28;20059;-48
2022/04/12 11:55:59;;;;;;;0.30;0.10;;;26.50;39.40;;;;;;5068364;28;20094;-48
2022/04/12 11:58:29;;;;;;;1.98;0.10;;;26.60;39.50;;;;;;5068393;28;20067;-46
2022/04/12 12:00:58;;;;;;;1.10;0.30;;;26.60;39.40;;;;;;5068447;28;20416;-47
2022/04/12 12:03:26;;;;;;;2.75;0.10;;;26.60;39.40;;;;;;5067686;28;20048;-46
2022/04/12 12:05:57;;;;;;;3.63;0.10;;;26.60;39.40;;;;;;5068123;28;20118;-48
2022/04/12 12:08:24;;;;;;;3.97;0.10;;;26.60;39.40;;;;;;5068423;28;20041;-48
2022/04/12 12:10:52;;;;;;;0.40;0.28;;;26.60;39.30;;;;;;5068051;28;20098;-49
2022/04/12 12:13:25;;;;;;;1.15;0.20;;;26.60;39.30;;;;;;5065757;28;20111;-50
2022/04/12 12:15:52;;;;;;;1.35;0.00;;;26.70;39.30;;;;;;5065649;28;20045;-47
2022/04/12 12:18:21;;;;;;;2.15;0.10;;;26.70;39.30;;;;;;5068316;28;20425;-50
2022/04/12 12:20:48;;;;;;;16.73;0.20;;;26.70;39.20;;;;;;5066943;28;20417;-52
2022/04/12 12:23:16;;;;;;;3.58;0.20;;;26.70;39.20;;;;;;5071572;28;20036;-50
2022/04/12 12:25:54;;;;;;;0.88;0.10;;;26.80;37.70;;;;;;5069087;28;20041;-52
2022/04/12 12:28:24;;;;;;;6.28;0.90;;;26.80;36.70;;;;;;5066190;28;20092;-52
2022/04/12 12:31:00;;;;;;;3.17;0.10;;;26.80;36.10;;;;;;5068222;28;20045;-53
2022/04/12 12:33:38;;;;;;;1.70;0.13;;;26.90;35.30;;;;;;5050554;28;20036;-45
2022/04/12 12:36:17;;;;;;;4.28;0.45;;;26.90;34.90;;;;;;5065442;28;20381;-54
2022/04/12 12:38:45;;;;;;;8.02;0.52;;;26.90;34.50;;;;;;5050192;28;20051;-49
2022/04/12 12:41:23;;;;;;;10.30;0.30;;;26.90;34.10;;;;;;5059573;28;20054;-50
2022/04/12 12:43:54;;;;;;;6.95;0.20;;;26.90;33.30;;;;;;5064026;28;20543;-52
2022/04/12 12:46:21;;;;;;;6.30;0.10;;;26.90;33.10;;;;;;5064609;28;20041;-46
2022/04/12 12:49:06;;;;;;;3.47;1.08;;;26.90;33.10;;;;;;5064570;28;20120;-49
2022/04/12 12:51:33;;;;;;;3.35;0.50;;;27.00;33.10;;;;;;5054824;28;20373;-49
2022/04/12 12:54:01;;;;;;;5.38;0.50;;;27.00;33.10;;;;;;5061452;28;20177;-52